This is the latest recevied weather packets stored in our database for station/object F4WDE-10. If no packets are shown the sender has not sent any weather packets the latest 10 day(s).
| Time | Temp. | Humidity | Pressure | Rain* | Wind** | Luminosity | Snow |
|---|---|---|---|---|---|---|---|
| 1777326169 | 16.11° C | 89% | 963 hPa | - | - | - | - |
| 1777325267 | 16.11° C | 91% | 963 hPa | - | - | - | - |
| 1777324366 | 16.11° C | 92% | 963 hPa | - | - | - | - |
| 1777323465 | 16.11° C | 88% | 963 hPa | - | - | - | - |
| 1777322564 | 16.67° C | 86% | 963 hPa | - | - | - | - |
| 1777321663 | 17.22° C | 87% | 963 hPa | - | - | - | - |
| 1777320762 | 16.11° C | 95% | 963 hPa | - | - | - | - |
| 1777319861 | 17.22° C | 85% | 963 hPa | - | - | - | - |
| 1777318960 | 17.22° C | 82% | 963 hPa | - | - | - | - |
| 1777318058 | 17.78° C | 81% | 963 hPa | - | - | - | - |
| 1777317157 | 17.78° C | 82% | 962 hPa | - | - | - | - |
| 1777316256 | 17.78° C | 82% | 962 hPa | - | - | - | - |
| 1777315355 | 17.78° C | 81% | 962 hPa | - | - | - | - |
| 1777314454 | 17.78° C | 82% | 962 hPa | - | - | - | - |
| 1777313553 | 17.78° C | 80% | 962 hPa | - | - | - | - |
| 1777312652 | 18.33° C | 79% | 962 hPa | - | - | - | - |
| 1777311751 | 17.78° C | 82% | 962 hPa | - | - | - | - |
| 1777310850 | 18.33° C | 78% | 962 hPa | - | - | - | - |
| 1777309949 | 18.33° C | 78% | 962 hPa | - | - | - | - |
| 1777309047 | 18.33° C | 76% | 963 hPa | - | - | - | - |
| 1777308146 | 18.89° C | 76% | 963 hPa | - | - | - | - |
| 1777307245 | 21.11° C | 62% | 963 hPa | - | - | - | - |
| 1777306344 | 27.22° C | 43% | 963 hPa | - | - | - | - |
| 1777305443 | 33.89° C | 32% | 963 hPa | - | - | - | - |
| 1777304542 | 33.33° C | 33% | 963 hPa | - | - | - | - |
* Rain since midnight (hover to see other rain measurements)
** Current wind speed in m/s (hover to see current wind gust speed)